sensor_id;sensor_type;location;lat;lon;timestamp;P1;durP1;ratioP1;P2;durP2;ratioP2
9270;SDS011;4673;53.458;9.940;2022-10-17T00:00:32;3.50;;;3.50;;
9270;SDS011;4673;53.458;9.940;2022-10-17T00:02:57;3.50;;;3.50;;
9270;SDS011;4673;53.458;9.940;2022-10-17T00:05:23;3.67;;;3.67;;
9270;SDS011;4673;53.458;9.940;2022-10-17T00:07:49;4.67;;;4.67;;
9270;SDS011;4673;53.458;9.940;2022-10-17T00:10:15;4.20;;;4.20;;
9270;SDS011;4673;53.458;9.940;2022-10-17T00:12:41;3.80;;;3.80;;
9270;SDS011;4673;53.458;9.940;2022-10-17T00:15:07;3.80;;;3.80;;
9270;SDS011;4673;53.458;9.940;2022-10-17T00:17:33;3.60;;;3.60;;
9270;SDS011;4673;53.458;9.940;2022-10-17T00:19:59;4.23;;;4.23;;
9270;SDS011;4673;53.458;9.940;2022-10-17T00:22:25;4.00;;;4.00;;
9270;SDS011;4673;53.458;9.940;2022-10-17T00:24:51;5.17;;;5.17;;
9270;SDS011;4673;53.458;9.940;2022-10-17T00:27:17;4.47;;;4.47;;
9270;SDS011;4673;53.458;9.940;2022-10-17T00:29:46;4.03;;;4.03;;
9270;SDS011;4673;53.458;9.940;2022-10-17T00:32:13;3.90;;;3.90;;
9270;SDS011;4673;53.458;9.940;2022-10-17T00:34:38;3.73;;;3.73;;
9270;SDS011;4673;53.458;9.940;2022-10-17T00:37:04;4.07;;;4.07;;
9270;SDS011;4673;53.458;9.940;2022-10-17T00:39:29;4.57;;;4.57;;
9270;SDS011;4673;53.458;9.940;2022-10-17T00:41:55;3.80;;;3.80;;
9270;SDS011;4673;53.458;9.940;2022-10-17T00:47:03;4.30;;;4.30;;
9270;SDS011;4673;53.458;9.940;2022-10-17T00:49:33;3.77;;;3.77;;
9270;SDS011;4673;53.458;9.940;2022-10-17T00:52:01;3.97;;;3.97;;
9270;SDS011;4673;53.458;9.940;2022-10-17T00:54:32;4.20;;;4.20;;
9270;SDS011;4673;53.458;9.940;2022-10-17T00:57:00;3.43;;;3.43;;
9270;SDS011;4673;53.458;9.940;2022-10-17T00:59:26;3.37;;;3.37;;
9270;SDS011;4673;53.458;9.940;2022-10-17T01:02:03;3.53;;;3.53;;
9270;SDS011;4673;53.458;9.940;2022-10-17T01:04:31;3.53;;;3.53;;
9270;SDS011;4673;53.458;9.940;2022-10-17T01:06:57;3.40;;;3.40;;
9270;SDS011;4673;53.458;9.940;2022-10-17T01:09:23;3.10;;;3.10;;
9270;SDS011;4673;53.458;9.940;2022-10-17T01:17:50;3.43;;;3.43;;
9270;SDS011;4673;53.458;9.940;2022-10-17T01:29:38;3.27;;;3.27;;
9270;SDS011;4673;53.458;9.940;2022-10-17T01:32:46;3.33;;;3.33;;
9270;SDS011;4673;53.458;9.940;2022-10-17T01:35:20;3.37;;;3.37;;
9270;SDS011;4673;53.458;9.940;2022-10-17T01:40:29;3.80;;;3.80;;
9270;SDS011;4673;53.458;9.940;2022-10-17T01:43:02;3.83;;;3.83;;
9270;SDS011;4673;53.458;9.940;2022-10-17T01:48:15;3.43;;;3.43;;
9270;SDS011;4673;53.458;9.940;2022-10-17T01:50:45;3.40;;;3.40;;
9270;SDS011;4673;53.458;9.940;2022-10-17T01:53:21;4.13;;;4.13;;
9270;SDS011;4673;53.458;9.940;2022-10-17T01:55:56;3.83;;;3.83;;
9270;SDS011;4673;53.458;9.940;2022-10-17T01:58:31;4.37;;;4.37;;
9270;SDS011;4673;53.458;9.940;2022-10-17T02:01:04;4.37;;;4.37;;
9270;SDS011;4673;53.458;9.940;2022-10-17T02:03:31;4.00;;;4.00;;
9270;SDS011;4673;53.458;9.940;2022-10-17T02:05:59;4.17;;;4.17;;
9270;SDS011;4673;53.458;9.940;2022-10-17T02:08:26;4.40;;;4.40;;
9270;SDS011;4673;53.458;9.940;2022-10-17T02:13:34;4.73;;;4.73;;
9270;SDS011;4673;53.458;9.940;2022-10-17T02:16:27;4.33;;;4.33;;
9270;SDS011;4673;53.458;9.940;2022-10-17T02:19:14;4.23;;;4.23;;
9270;SDS011;4673;53.458;9.940;2022-10-17T02:24:44;3.57;;;3.57;;
9270;SDS011;4673;53.458;9.940;2022-10-17T02:27:15;4.27;;;4.27;;
9270;SDS011;4673;53.458;9.940;2022-10-17T02:29:49;3.97;;;3.97;;
9270;SDS011;4673;53.458;9.940;2022-10-17T02:32:33;4.70;;;4.70;;
9270;SDS011;4673;53.458;9.940;2022-10-17T02:35:04;4.13;;;4.13;;
9270;SDS011;4673;53.458;9.940;2022-10-17T02:37:33;4.57;;;4.57;;
9270;SDS011;4673;53.458;9.940;2022-10-17T02:40:00;4.13;;;4.13;;
9270;SDS011;4673;53.458;9.940;2022-10-17T02:42:27;4.17;;;4.17;;
9270;SDS011;4673;53.458;9.940;2022-10-17T02:44:54;4.70;;;4.70;;
9270;SDS011;4673;53.458;9.940;2022-10-17T02:47:25;4.57;;;4.57;;
9270;SDS011;4673;53.458;9.940;2022-10-17T02:49:55;4.47;;;4.47;;
9270;SDS011;4673;53.458;9.940;2022-10-17T02:55:15;4.73;;;4.73;;
9270;SDS011;4673;53.458;9.940;2022-10-17T02:57:55;4.73;;;4.73;;
9270;SDS011;4673;53.458;9.940;2022-10-17T03:00:24;3.50;;;3.50;;
9270;SDS011;4673;53.458;9.940;2022-10-17T03:02:52;3.93;;;3.93;;
9270;SDS011;4673;53.458;9.940;2022-10-17T03:05:19;3.53;;;3.53;;
9270;SDS011;4673;53.458;9.940;2022-10-17T03:07:50;4.23;;;4.23;;
9270;SDS011;4673;53.458;9.940;2022-10-17T03:10:16;4.33;;;4.33;;
9270;SDS011;4673;53.458;9.940;2022-10-17T03:12:42;4.27;;;4.27;;
9270;SDS011;4673;53.458;9.940;2022-10-17T03:15:08;3.60;;;3.60;;
9270;SDS011;4673;53.458;9.940;2022-10-17T03:17:34;4.13;;;4.13;;
9270;SDS011;4673;53.458;9.940;2022-10-17T03:20:00;3.70;;;3.70;;
9270;SDS011;4673;53.458;9.940;2022-10-17T03:22:26;3.53;;;3.53;;
9270;SDS011;4673;53.458;9.940;2022-10-17T03:24:52;3.80;;;3.80;;
9270;SDS011;4673;53.458;9.940;2022-10-17T03:27:17;5.00;;;5.00;;
9270;SDS011;4673;53.458;9.940;2022-10-17T03:29:43;5.20;;;5.20;;
9270;SDS011;4673;53.458;9.940;2022-10-17T03:32:08;3.63;;;3.63;;
9270;SDS011;4673;53.458;9.940;2022-10-17T03:34:34;4.07;;;4.07;;
9270;SDS011;4673;53.458;9.940;2022-10-17T03:36:59;3.80;;;3.80;;
9270;SDS011;4673;53.458;9.940;2022-10-17T03:39:25;3.60;;;3.60;;
9270;SDS011;4673;53.458;9.940;2022-10-17T03:41:51;3.60;;;3.60;;
9270;SDS011;4673;53.458;9.940;2022-10-17T03:44:16;4.13;;;4.13;;
9270;SDS011;4673;53.458;9.940;2022-10-17T03:46:42;4.13;;;4.13;;
9270;SDS011;4673;53.458;9.940;2022-10-17T03:49:08;3.43;;;3.43;;
9270;SDS011;4673;53.458;9.940;2022-10-17T03:51:34;3.43;;;3.43;;
9270;SDS011;4673;53.458;9.940;2022-10-17T03:54:00;3.77;;;3.77;;
9270;SDS011;4673;53.458;9.940;2022-10-17T03:56:26;4.10;;;4.10;;
9270;SDS011;4673;53.458;9.940;2022-10-17T03:58:52;3.80;;;3.80;;
9270;SDS011;4673;53.458;9.940;2022-10-17T04:01:18;3.50;;;3.50;;
9270;SDS011;4673;53.458;9.940;2022-10-17T04:03:49;3.70;;;3.70;;
9270;SDS011;4673;53.458;9.940;2022-10-17T04:06:15;3.70;;;3.70;;
9270;SDS011;4673;53.458;9.940;2022-10-17T04:08:41;4.20;;;4.20;;
9270;SDS011;4673;53.458;9.940;2022-10-17T04:11:07;3.93;;;3.93;;
9270;SDS011;4673;53.458;9.940;2022-10-17T04:13:34;4.17;;;4.17;;
9270;SDS011;4673;53.458;9.940;2022-10-17T04:16:02;4.20;;;4.20;;
9270;SDS011;4673;53.458;9.940;2022-10-17T04:18:29;3.40;;;3.40;;
9270;SDS011;4673;53.458;9.940;2022-10-17T04:20:55;4.30;;;4.30;;
9270;SDS011;4673;53.458;9.940;2022-10-17T04:23:21;3.90;;;3.90;;
9270;SDS011;4673;53.458;9.940;2022-10-17T04:25:47;4.13;;;4.13;;
9270;SDS011;4673;53.458;9.940;2022-10-17T04:28:13;4.37;;;4.37;;
9270;SDS011;4673;53.458;9.940;2022-10-17T04:30:39;4.57;;;4.57;;
9270;SDS011;4673;53.458;9.940;2022-10-17T04:33:05;4.03;;;4.03;;
9270;SDS011;4673;53.458;9.940;2022-10-17T04:35:31;3.93;;;3.93;;
9270;SDS011;4673;53.458;9.940;2022-10-17T04:37:56;4.63;;;4.63;;
9270;SDS011;4673;53.458;9.940;2022-10-17T04:40:22;4.50;;;4.50;;
9270;SDS011;4673;53.458;9.940;2022-10-17T04:42:48;5.00;;;5.00;;
9270;SDS011;4673;53.458;9.940;2022-10-17T04:45:13;4.67;;;4.67;;
9270;SDS011;4673;53.458;9.940;2022-10-17T04:47:39;4.50;;;4.50;;
9270;SDS011;4673;53.458;9.940;2022-10-17T04:50:05;4.60;;;4.60;;
9270;SDS011;4673;53.458;9.940;2022-10-17T04:52:31;4.30;;;4.30;;
9270;SDS011;4673;53.458;9.940;2022-10-17T04:54:58;4.57;;;4.57;;
9270;SDS011;4673;53.458;9.940;2022-10-17T04:57:24;5.00;;;5.00;;
9270;SDS011;4673;53.458;9.940;2022-10-17T04:59:49;4.90;;;4.90;;
9270;SDS011;4673;53.458;9.940;2022-10-17T05:02:15;5.30;;;5.30;;
9270;SDS011;4673;53.458;9.940;2022-10-17T05:04:41;5.00;;;5.00;;
9270;SDS011;4673;53.458;9.940;2022-10-17T05:07:06;5.20;;;5.20;;
9270;SDS011;4673;53.458;9.940;2022-10-17T05:09:32;5.47;;;5.47;;
9270;SDS011;4673;53.458;9.940;2022-10-17T05:11:57;5.27;;;5.27;;
9270;SDS011;4673;53.458;9.940;2022-10-17T05:14:23;4.87;;;4.87;;
9270;SDS011;4673;53.458;9.940;2022-10-17T05:16:49;4.83;;;4.83;;
9270;SDS011;4673;53.458;9.940;2022-10-17T05:19:14;5.03;;;5.03;;
9270;SDS011;4673;53.458;9.940;2022-10-17T05:21:41;5.10;;;5.10;;
9270;SDS011;4673;53.458;9.940;2022-10-17T05:24:07;4.93;;;4.93;;
9270;SDS011;4673;53.458;9.940;2022-10-17T05:26:34;5.47;;;5.47;;
9270;SDS011;4673;53.458;9.940;2022-10-17T05:29:00;5.27;;;5.27;;
9270;SDS011;4673;53.458;9.940;2022-10-17T05:31:27;5.77;;;5.77;;
9270;SDS011;4673;53.458;9.940;2022-10-17T05:33:53;5.43;;;5.43;;
9270;SDS011;4673;53.458;9.940;2022-10-17T05:36:19;6.13;;;6.13;;
9270;SDS011;4673;53.458;9.940;2022-10-17T05:38:51;6.00;;;6.00;;
9270;SDS011;4673;53.458;9.940;2022-10-17T05:41:16;5.07;;;5.07;;
9270;SDS011;4673;53.458;9.940;2022-10-17T05:43:43;5.33;;;5.33;;
9270;SDS011;4673;53.458;9.940;2022-10-17T05:46:08;5.87;;;5.87;;
9270;SDS011;4673;53.458;9.940;2022-10-17T05:48:34;5.33;;;5.33;;
9270;SDS011;4673;53.458;9.940;2022-10-17T05:51:00;5.53;;;5.53;;
9270;SDS011;4673;53.458;9.940;2022-10-17T05:53:32;5.73;;;5.73;;
9270;SDS011;4673;53.458;9.940;2022-10-17T05:56:00;5.67;;;5.67;;
9270;SDS011;4673;53.458;9.940;2022-10-17T05:58:27;6.40;;;6.40;;
9270;SDS011;4673;53.458;9.940;2022-10-17T06:00:57;6.20;;;6.20;;
9270;SDS011;4673;53.458;9.940;2022-10-17T06:03:23;6.60;;;6.60;;
9270;SDS011;4673;53.458;9.940;2022-10-17T06:05:49;6.53;;;6.53;;
9270;SDS011;4673;53.458;9.940;2022-10-17T06:08:15;6.90;;;6.90;;
9270;SDS011;4673;53.458;9.940;2022-10-17T06:10:41;6.30;;;6.30;;
9270;SDS011;4673;53.458;9.940;2022-10-17T06:13:07;5.90;;;5.90;;
9270;SDS011;4673;53.458;9.940;2022-10-17T06:15:32;6.20;;;6.20;;
9270;SDS011;4673;53.458;9.940;2022-10-17T06:17:58;7.07;;;7.07;;
9270;SDS011;4673;53.458;9.940;2022-10-17T06:20:23;6.10;;;6.10;;
9270;SDS011;4673;53.458;9.940;2022-10-17T06:22:49;7.20;;;7.20;;
9270;SDS011;4673;53.458;9.940;2022-10-17T06:25:14;6.60;;;6.60;;
9270;SDS011;4673;53.458;9.940;2022-10-17T06:27:40;6.40;;;6.40;;
9270;SDS011;4673;53.458;9.940;2022-10-17T06:30:06;6.37;;;6.37;;
9270;SDS011;4673;53.458;9.940;2022-10-17T06:32:32;5.90;;;5.90;;
9270;SDS011;4673;53.458;9.940;2022-10-17T06:34:57;7.03;;;7.03;;
9270;SDS011;4673;53.458;9.940;2022-10-17T06:37:23;6.53;;;6.53;;
9270;SDS011;4673;53.458;9.940;2022-10-17T06:39:49;6.53;;;6.53;;
9270;SDS011;4673;53.458;9.940;2022-10-17T06:42:14;6.27;;;6.27;;
9270;SDS011;4673;53.458;9.940;2022-10-17T06:44:40;6.93;;;6.93;;
9270;SDS011;4673;53.458;9.940;2022-10-17T06:47:06;6.53;;;6.53;;
9270;SDS011;4673;53.458;9.940;2022-10-17T06:49:33;7.53;;;7.53;;
9270;SDS011;4673;53.458;9.940;2022-10-17T06:51:59;6.40;;;6.40;;
9270;SDS011;4673;53.458;9.940;2022-10-17T06:54:24;7.00;;;7.00;;
9270;SDS011;4673;53.458;9.940;2022-10-17T06:56:52;6.83;;;6.83;;
9270;SDS011;4673;53.458;9.940;2022-10-17T06:59:17;6.73;;;6.73;;
9270;SDS011;4673;53.458;9.940;2022-10-17T07:01:43;6.70;;;6.70;;
9270;SDS011;4673;53.458;9.940;2022-10-17T07:04:08;7.00;;;7.00;;
9270;SDS011;4673;53.458;9.940;2022-10-17T07:06:34;5.53;;;5.53;;
9270;SDS011;4673;53.458;9.940;2022-10-17T07:09:00;6.00;;;6.00;;
9270;SDS011;4673;53.458;9.940;2022-10-17T07:11:26;6.13;;;6.13;;
9270;SDS011;4673;53.458;9.940;2022-10-17T07:13:52;5.43;;;5.43;;
9270;SDS011;4673;53.458;9.940;2022-10-17T07:16:17;7.10;;;7.10;;
9270;SDS011;4673;53.458;9.940;2022-10-17T07:18:43;5.63;;;5.63;;
9270;SDS011;4673;53.458;9.940;2022-10-17T07:21:12;5.67;;;5.67;;
9270;SDS011;4673;53.458;9.940;2022-10-17T07:23:38;5.43;;;5.43;;
9270;SDS011;4673;53.458;9.940;2022-10-17T07:26:06;6.33;;;6.33;;
9270;SDS011;4673;53.458;9.940;2022-10-17T07:28:34;5.00;;;5.00;;
9270;SDS011;4673;53.458;9.940;2022-10-17T07:31:09;4.73;;;4.73;;
9270;SDS011;4673;53.458;9.940;2022-10-17T07:33:37;4.63;;;4.63;;
9270;SDS011;4673;53.458;9.940;2022-10-17T07:36:03;4.43;;;4.43;;
9270;SDS011;4673;53.458;9.940;2022-10-17T07:38:29;3.83;;;3.83;;
9270;SDS011;4673;53.458;9.940;2022-10-17T07:40:59;3.13;;;3.13;;
9270;SDS011;4673;53.458;9.940;2022-10-17T07:43:26;2.90;;;2.90;;
9270;SDS011;4673;53.458;9.940;2022-10-17T07:45:52;2.80;;;2.80;;
9270;SDS011;4673;53.458;9.940;2022-10-17T07:48:19;2.75;;;2.75;;
9270;SDS011;4673;53.458;9.940;2022-10-17T07:50:46;2.88;;;2.88;;
9270;SDS011;4673;53.458;9.940;2022-10-17T07:53:12;3.05;;;3.05;;
9270;SDS011;4673;53.458;9.940;2022-10-17T07:55:38;3.35;;;3.35;;
9270;SDS011;4673;53.458;9.940;2022-10-17T07:58:04;2.92;;;2.92;;
9270;SDS011;4673;53.458;9.940;2022-10-17T08:00:30;3.03;;;3.03;;
9270;SDS011;4673;53.458;9.940;2022-10-17T08:02:56;2.97;;;2.97;;
9270;SDS011;4673;53.458;9.940;2022-10-17T08:05:21;3.03;;;3.03;;
9270;SDS011;4673;53.458;9.940;2022-10-17T08:07:47;2.67;;;2.67;;
9270;SDS011;4673;53.458;9.940;2022-10-17T08:10:13;2.75;;;2.75;;
9270;SDS011;4673;53.458;9.940;2022-10-17T08:12:39;2.38;;;2.38;;
9270;SDS011;4673;53.458;9.940;2022-10-17T08:15:06;2.70;;;2.70;;
9270;SDS011;4673;53.458;9.940;2022-10-17T08:17:33;2.92;;;2.92;;
9270;SDS011;4673;53.458;9.940;2022-10-17T08:19:59;3.50;;;3.50;;
9270;SDS011;4673;53.458;9.940;2022-10-17T08:22:25;2.67;;;2.67;;
9270;SDS011;4673;53.458;9.940;2022-10-17T08:24:50;2.42;;;2.42;;
9270;SDS011;4673;53.458;9.940;2022-10-17T08:27:16;2.70;;;2.70;;
9270;SDS011;4673;53.458;9.940;2022-10-17T08:29:47;2.40;;;2.40;;
9270;SDS011;4673;53.458;9.940;2022-10-17T08:32:17;2.55;;;2.55;;
9270;SDS011;4673;53.458;9.940;2022-10-17T08:34:43;2.70;;;2.70;;
9270;SDS011;4673;53.458;9.940;2022-10-17T08:37:08;2.53;;;2.53;;
9270;SDS011;4673;53.458;9.940;2022-10-17T08:39:34;2.25;;;2.25;;
9270;SDS011;4673;53.458;9.940;2022-10-17T08:47:28;2.33;;;2.33;;
9270;SDS011;4673;53.458;9.940;2022-10-17T08:55:46;2.40;;;2.40;;
9270;SDS011;4673;53.458;9.940;2022-10-17T08:58:14;2.47;;;2.47;;
9270;SDS011;4673;53.458;9.940;2022-10-17T09:01:08;2.25;;;2.25;;
9270;SDS011;4673;53.458;9.940;2022-10-17T09:06:24;2.20;;;2.20;;
9270;SDS011;4673;53.458;9.940;2022-10-17T09:09:00;2.58;;;2.58;;
9270;SDS011;4673;53.458;9.940;2022-10-17T09:11:49;2.40;;;2.40;;
9270;SDS011;4673;53.458;9.940;2022-10-17T09:20:07;2.80;;;2.80;;
9270;SDS011;4673;53.458;9.940;2022-10-17T09:22:37;2.00;;;2.00;;
9270;SDS011;4673;53.458;9.940;2022-10-17T09:25:10;2.38;;;2.38;;
9270;SDS011;4673;53.458;9.940;2022-10-17T09:27:50;2.20;;;2.20;;
9270;SDS011;4673;53.458;9.940;2022-10-17T09:30:39;2.25;;;2.25;;
9270;SDS011;4673;53.458;9.940;2022-10-17T09:33:26;2.72;;;2.72;;
9270;SDS011;4673;53.458;9.940;2022-10-17T09:35:55;2.40;;;2.40;;
9270;SDS011;4673;53.458;9.940;2022-10-17T09:38:22;2.60;;;2.60;;
9270;SDS011;4673;53.458;9.940;2022-10-17T09:40:54;1.90;;;1.90;;
9270;SDS011;4673;53.458;9.940;2022-10-17T09:43:21;2.70;;;2.70;;
9270;SDS011;4673;53.458;9.940;2022-10-17T09:46:00;2.40;;;2.40;;
9270;SDS011;4673;53.458;9.940;2022-10-17T09:51:15;3.17;;;3.17;;
9270;SDS011;4673;53.458;9.940;2022-10-17T09:53:43;2.42;;;2.42;;
9270;SDS011;4673;53.458;9.940;2022-10-17T09:56:13;2.78;;;2.78;;
9270;SDS011;4673;53.458;9.940;2022-10-17T09:58:41;2.50;;;2.50;;
9270;SDS011;4673;53.458;9.940;2022-10-17T10:03:40;2.22;;;2.22;;
9270;SDS011;4673;53.458;9.940;2022-10-17T10:06:16;3.20;;;3.20;;
9270;SDS011;4673;53.458;9.940;2022-10-17T10:09:01;2.45;;;2.45;;
9270;SDS011;4673;53.458;9.940;2022-10-17T10:11:46;2.78;;;2.78;;
9270;SDS011;4673;53.458;9.940;2022-10-17T10:14:22;2.22;;;2.22;;
9270;SDS011;4673;53.458;9.940;2022-10-17T10:16:59;3.92;;;3.92;;
9270;SDS011;4673;53.458;9.940;2022-10-17T10:19:28;6.30;;;6.30;;
9270;SDS011;4673;53.458;9.940;2022-10-17T10:21:57;2.78;;;2.78;;
9270;SDS011;4673;53.458;9.940;2022-10-17T10:24:25;3.10;;;3.10;;
9270;SDS011;4673;53.458;9.940;2022-10-17T10:26:51;2.45;;;2.45;;
9270;SDS011;4673;53.458;9.940;2022-10-17T10:29:21;2.40;;;2.40;;
9270;SDS011;4673;53.458;9.940;2022-10-17T10:34:46;2.50;;;2.50;;
9270;SDS011;4673;53.458;9.940;2022-10-17T10:37:26;2.78;;;2.78;;
9270;SDS011;4673;53.458;9.940;2022-10-17T10:40:17;3.42;;;3.42;;
9270;SDS011;4673;53.458;9.940;2022-10-17T10:42:49;2.95;;;2.95;;
9270;SDS011;4673;53.458;9.940;2022-10-17T10:45:17;2.55;;;2.55;;
9270;SDS011;4673;53.458;9.940;2022-10-17T10:47:53;2.70;;;2.70;;
9270;SDS011;4673;53.458;9.940;2022-10-17T10:55:31;2.97;;;2.97;;
9270;SDS011;4673;53.458;9.940;2022-10-17T10:58:05;3.70;;;3.70;;
9270;SDS011;4673;53.458;9.940;2022-10-17T11:00:41;3.22;;;3.22;;
9270;SDS011;4673;53.458;9.940;2022-10-17T11:03:25;2.63;;;2.63;;
9270;SDS011;4673;53.458;9.940;2022-10-17T11:06:18;2.60;;;2.60;;
9270;SDS011;4673;53.458;9.940;2022-10-17T11:11:53;2.70;;;2.70;;
9270;SDS011;4673;53.458;9.940;2022-10-17T11:22:19;2.90;;;2.90;;
9270;SDS011;4673;53.458;9.940;2022-10-17T11:25:56;2.85;;;2.85;;
9270;SDS011;4673;53.458;9.940;2022-10-17T11:27:57;2.90;;;2.90;;
9270;SDS011;4673;53.458;9.940;2022-10-17T11:30:24;2.90;;;2.90;;
9270;SDS011;4673;53.458;9.940;2022-10-17T11:32:56;2.97;;;2.97;;
9270;SDS011;4673;53.458;9.940;2022-10-17T11:35:38;2.47;;;2.47;;
9270;SDS011;4673;53.458;9.940;2022-10-17T11:40:51;2.72;;;2.72;;
9270;SDS011;4673;53.458;9.940;2022-10-17T11:43:22;2.90;;;2.90;;
9270;SDS011;4673;53.458;9.940;2022-10-17T11:45:57;2.53;;;2.53;;
9270;SDS011;4673;53.458;9.940;2022-10-17T11:48:40;2.53;;;2.53;;
9270;SDS011;4673;53.458;9.940;2022-10-17T11:51:11;2.15;;;2.15;;
9270;SDS011;4673;53.458;9.940;2022-10-17T11:53:49;2.13;;;2.13;;
9270;SDS011;4673;53.458;9.940;2022-10-17T11:56:33;2.60;;;2.60;;
9270;SDS011;4673;53.458;9.940;2022-10-17T12:01:53;3.10;;;3.10;;
9270;SDS011;4673;53.458;9.940;2022-10-17T12:04:36;2.35;;;2.35;;
9270;SDS011;4673;53.458;9.940;2022-10-17T12:07:21;2.70;;;2.70;;
9270;SDS011;4673;53.458;9.940;2022-10-17T12:09:53;3.08;;;3.08;;
9270;SDS011;4673;53.458;9.940;2022-10-17T12:12:29;2.63;;;2.63;;
9270;SDS011;4673;53.458;9.940;2022-10-17T12:17:38;3.90;;;3.90;;
9270;SDS011;4673;53.458;9.940;2022-10-17T12:22:45;2.92;;;2.92;;
9270;SDS011;4673;53.458;9.940;2022-10-17T12:25:15;2.80;;;2.80;;
9270;SDS011;4673;53.458;9.940;2022-10-17T12:27:44;2.70;;;2.70;;
9270;SDS011;4673;53.458;9.940;2022-10-17T12:35:45;2.83;;;2.83;;
9270;SDS011;4673;53.458;9.940;2022-10-17T12:38:19;2.83;;;2.83;;
9270;SDS011;4673;53.458;9.940;2022-10-17T12:40:47;2.60;;;2.60;;
9270;SDS011;4673;53.458;9.940;2022-10-17T12:56:19;2.85;;;2.85;;
9270;SDS011;4673;53.458;9.940;2022-10-17T12:58:54;7.70;;;7.70;;
9270;SDS011;4673;53.458;9.940;2022-10-17T13:01:32;3.10;;;3.10;;
9270;SDS011;4673;53.458;9.940;2022-10-17T13:04:00;3.13;;;3.13;;
9270;SDS011;4673;53.458;9.940;2022-10-17T13:06:30;3.50;;;3.50;;
9270;SDS011;4673;53.458;9.940;2022-10-17T13:09:06;2.80;;;2.80;;
9270;SDS011;4673;53.458;9.940;2022-10-17T13:11:39;3.67;;;3.67;;
9270;SDS011;4673;53.458;9.940;2022-10-17T13:14:10;4.78;;;4.78;;
9270;SDS011;4673;53.458;9.940;2022-10-17T13:16:49;5.75;;;5.75;;
9270;SDS011;4673;53.458;9.940;2022-10-17T13:19:21;4.57;;;4.57;;
9270;SDS011;4673;53.458;9.940;2022-10-17T13:21:52;5.22;;;5.22;;
9270;SDS011;4673;53.458;9.940;2022-10-17T13:24:38;5.45;;;5.45;;
9270;SDS011;4673;53.458;9.940;2022-10-17T13:29:55;5.50;;;5.50;;
9270;SDS011;4673;53.458;9.940;2022-10-17T13:32:24;5.82;;;5.82;;
9270;SDS011;4673;53.458;9.940;2022-10-17T13:37:39;5.53;;;5.53;;
9270;SDS011;4673;53.458;9.940;2022-10-17T13:40:06;5.78;;;5.78;;
9270;SDS011;4673;53.458;9.940;2022-10-17T13:42:39;5.47;;;5.47;;
9270;SDS011;4673;53.458;9.940;2022-10-17T13:47:51;6.00;;;6.00;;
9270;SDS011;4673;53.458;9.940;2022-10-17T13:50:19;6.28;;;6.28;;
9270;SDS011;4673;53.458;9.940;2022-10-17T13:53:15;6.35;;;6.35;;
9270;SDS011;4673;53.458;9.940;2022-10-17T13:58:16;6.88;;;6.88;;
9270;SDS011;4673;53.458;9.940;2022-10-17T14:00:43;6.07;;;6.07;;
9270;SDS011;4673;53.458;9.940;2022-10-17T14:03:09;6.85;;;6.85;;
9270;SDS011;4673;53.458;9.940;2022-10-17T14:05:35;6.53;;;6.53;;
9270;SDS011;4673;53.458;9.940;2022-10-17T14:08:36;9.40;;;9.40;;
9270;SDS011;4673;53.458;9.940;2022-10-17T14:11:12;8.40;;;8.40;;
9270;SDS011;4673;53.458;9.940;2022-10-17T14:13:56;7.88;;;7.88;;
9270;SDS011;4673;53.458;9.940;2022-10-17T14:16:23;7.15;;;7.15;;
9270;SDS011;4673;53.458;9.940;2022-10-17T14:18:50;7.22;;;7.22;;
9270;SDS011;4673;53.458;9.940;2022-10-17T14:21:24;7.68;;;7.68;;
9270;SDS011;4673;53.458;9.940;2022-10-17T14:24:11;7.78;;;7.78;;
9270;SDS011;4673;53.458;9.940;2022-10-17T14:26:49;7.45;;;7.45;;
9270;SDS011;4673;53.458;9.940;2022-10-17T14:29:21;7.88;;;7.88;;
9270;SDS011;4673;53.458;9.940;2022-10-17T14:31:48;7.68;;;7.68;;
9270;SDS011;4673;53.458;9.940;2022-10-17T14:34:38;8.50;;;8.50;;
9270;SDS011;4673;53.458;9.940;2022-10-17T14:37:09;7.22;;;7.22;;
9270;SDS011;4673;53.458;9.940;2022-10-17T14:39:51;7.70;;;7.70;;
9270;SDS011;4673;53.458;9.940;2022-10-17T14:42:19;8.50;;;8.50;;
9270;SDS011;4673;53.458;9.940;2022-10-17T14:44:49;7.85;;;7.85;;
9270;SDS011;4673;53.458;9.940;2022-10-17T14:47:21;7.85;;;7.85;;
9270;SDS011;4673;53.458;9.940;2022-10-17T14:49:55;8.55;;;8.50;;
9270;SDS011;4673;53.458;9.940;2022-10-17T14:52:30;8.10;;;8.10;;
9270;SDS011;4673;53.458;9.940;2022-10-17T14:54:56;8.02;;;8.02;;
9270;SDS011;4673;53.458;9.940;2022-10-17T14:59:50;9.60;;;9.60;;
9270;SDS011;4673;53.458;9.940;2022-10-17T15:02:16;9.07;;;9.07;;
9270;SDS011;4673;53.458;9.940;2022-10-17T15:04:41;10.20;;;10.20;;
9270;SDS011;4673;53.458;9.940;2022-10-17T15:07:12;9.48;;;9.48;;
9270;SDS011;4673;53.458;9.940;2022-10-17T15:09:39;10.57;;;10.57;;
9270;SDS011;4673;53.458;9.940;2022-10-17T15:12:06;10.70;;;10.65;;
9270;SDS011;4673;53.458;9.940;2022-10-17T15:14:36;9.93;;;9.93;;
9270;SDS011;4673;53.458;9.940;2022-10-17T15:17:04;10.77;;;10.77;;
9270;SDS011;4673;53.458;9.940;2022-10-17T15:19:34;10.70;;;10.70;;
9270;SDS011;4673;53.458;9.940;2022-10-17T15:21:59;10.95;;;10.95;;
9270;SDS011;4673;53.458;9.940;2022-10-17T15:24:25;10.32;;;10.32;;
9270;SDS011;4673;53.458;9.940;2022-10-17T15:26:51;7.68;;;7.68;;
9270;SDS011;4673;53.458;9.940;2022-10-17T15:29:17;8.32;;;8.32;;
9270;SDS011;4673;53.458;9.940;2022-10-17T15:31:43;8.77;;;8.77;;
9270;SDS011;4673;53.458;9.940;2022-10-17T15:34:08;8.60;;;8.60;;
9270;SDS011;4673;53.458;9.940;2022-10-17T15:36:40;8.15;;;8.15;;
9270;SDS011;4673;53.458;9.940;2022-10-17T15:39:12;8.48;;;8.45;;
9270;SDS011;4673;53.458;9.940;2022-10-17T15:41:37;7.75;;;7.75;;
9270;SDS011;4673;53.458;9.940;2022-10-17T15:44:03;9.00;;;9.00;;
9270;SDS011;4673;53.458;9.940;2022-10-17T15:46:29;8.65;;;8.65;;
9270;SDS011;4673;53.458;9.940;2022-10-17T15:49:00;8.30;;;8.30;;
9270;SDS011;4673;53.458;9.940;2022-10-17T15:51:28;8.65;;;8.65;;
9270;SDS011;4673;53.458;9.940;2022-10-17T15:53:53;8.18;;;8.18;;
9270;SDS011;4673;53.458;9.940;2022-10-17T15:56:21;7.97;;;7.97;;
9270;SDS011;4673;53.458;9.940;2022-10-17T15:58:50;9.30;;;9.30;;
9270;SDS011;4673;53.458;9.940;2022-10-17T16:01:20;9.57;;;9.57;;
9270;SDS011;4673;53.458;9.940;2022-10-17T16:03:51;8.60;;;8.60;;
9270;SDS011;4673;53.458;9.940;2022-10-17T16:06:17;8.93;;;8.93;;
9270;SDS011;4673;53.458;9.940;2022-10-17T16:08:47;9.70;;;9.70;;
9270;SDS011;4673;53.458;9.940;2022-10-17T16:11:18;9.75;;;9.75;;
9270;SDS011;4673;53.458;9.940;2022-10-17T16:13:50;9.25;;;9.25;;
9270;SDS011;4673;53.458;9.940;2022-10-17T16:16:18;10.10;;;10.10;;
9270;SDS011;4673;53.458;9.940;2022-10-17T16:18:46;10.70;;;10.60;;
9270;SDS011;4673;53.458;9.940;2022-10-17T16:21:11;10.18;;;10.18;;
9270;SDS011;4673;53.458;9.940;2022-10-17T16:23:39;10.75;;;10.75;;
9270;SDS011;4673;53.458;9.940;2022-10-17T16:26:05;11.13;;;11.13;;
9270;SDS011;4673;53.458;9.940;2022-10-17T16:28:31;13.77;;;13.77;;
9270;SDS011;4673;53.458;9.940;2022-10-17T16:30:57;11.52;;;11.52;;
9270;SDS011;4673;53.458;9.940;2022-10-17T16:33:22;11.95;;;11.95;;
9270;SDS011;4673;53.458;9.940;2022-10-17T16:35:48;11.45;;;11.45;;
9270;SDS011;4673;53.458;9.940;2022-10-17T16:38:13;12.25;;;12.25;;
9270;SDS011;4673;53.458;9.940;2022-10-17T16:40:39;11.73;;;11.73;;
9270;SDS011;4673;53.458;9.940;2022-10-17T16:43:05;11.23;;;11.23;;
9270;SDS011;4673;53.458;9.940;2022-10-17T16:45:31;10.95;;;10.95;;
9270;SDS011;4673;53.458;9.940;2022-10-17T16:47:57;10.95;;;10.95;;
9270;SDS011;4673;53.458;9.940;2022-10-17T16:50:22;11.05;;;11.05;;
9270;SDS011;4673;53.458;9.940;2022-10-17T16:52:48;11.25;;;11.25;;
9270;SDS011;4673;53.458;9.940;2022-10-17T16:55:14;11.50;;;11.50;;
9270;SDS011;4673;53.458;9.940;2022-10-17T16:57:42;11.23;;;11.23;;
9270;SDS011;4673;53.458;9.940;2022-10-17T17:00:09;11.20;;;11.20;;
9270;SDS011;4673;53.458;9.940;2022-10-17T17:02:36;10.00;;;10.00;;
9270;SDS011;4673;53.458;9.940;2022-10-17T17:05:01;11.65;;;11.65;;
9270;SDS011;4673;53.458;9.940;2022-10-17T17:07:27;10.02;;;10.00;;
9270;SDS011;4673;53.458;9.940;2022-10-17T17:09:53;11.07;;;11.07;;
9270;SDS011;4673;53.458;9.940;2022-10-17T17:12:20;12.35;;;12.35;;
9270;SDS011;4673;53.458;9.940;2022-10-17T17:14:46;11.55;;;11.55;;
9270;SDS011;4673;53.458;9.940;2022-10-17T17:17:11;12.10;;;12.10;;
9270;SDS011;4673;53.458;9.940;2022-10-17T17:19:37;12.85;;;12.85;;
9270;SDS011;4673;53.458;9.940;2022-10-17T17:22:02;11.85;;;11.85;;
9270;SDS011;4673;53.458;9.940;2022-10-17T17:24:28;11.57;;;11.57;;